PWSweather.com
Personal Weather Stations
Station Observations
719732
Ponferrada, PonferradaES 24411

PonferradaPonferradaES 24411

Lat: 42.5728, Lon: -6.6425

Elevation: 1676

Station Type: PCE-FWS 20 con garita Ambient Weather SRS100LX

Latest ConditionsUpdated 3:35:03 AM GMT+01:01 Sunday, Dec 16, 2018
Currently Today's Max Today's Min Today's Average
Temperature 50.7°F10.4°C 51.3°F10.7°C 50.5°F10.3°C 51.0°F10.6°C
Dew Point 49.9°F9.9°C 50.4°F10.2°C 49.7°F9.8°C 50.2°F10.1°C
Winds 1.6 mph ENE2.6 kmh ENE 3.1 mph -5.0 kmh - - 0.9 mph 1.4 kmh
Wind Gusts 3.8 mph6.1 kmh 3.8 mph6.1 kmh - -
Humidity 97% 97% 96% 97%
Pressure 29.97 in1014.9 mb 30.03 in1016.9 mb 29.96 in1014.6 mb -
Precipitation - 0.04 in1.0 mm - -
Hour Temp Dew Point Humidity Winds Wind Gusts Pressure Precip Precip Rate Daily Precip Total
03:35 AM 50.7°F10.4°C 49.9°F9.9°C 97% 1.6 mph ENE2.6 kmh ENE 3.8 mph6.1 kmh 29.97 in1014.9 mb 0.01 in0.3 mm 0.00 in0.0 mm 0.04 in1.0 mm
03:30 AM 50.5°F10.3°C 49.7°F9.8°C 97% 2.2 mph NNE3.5 kmh NNE 3.8 mph6.1 kmh 29.97 in1014.9 mb 0.01 in0.3 mm 0.00 in0.0 mm 0.04 in1.0 mm
03:25 AM 50.5°F10.3°C 49.7°F9.8°C 97% 0.7 mph NW1.1 kmh NW 2.2 mph3.5 kmh 29.97 in1014.9 mb 0.01 in0.3 mm 0.00 in0.0 mm 0.04 in1.0 mm
03:20 AM 50.5°F10.3°C 49.7°F9.8°C 97% Calm Calm 2.2 mph3.5 kmh 29.98 in1015.2 mb 0.01 in0.3 mm 0.00 in0.0 mm 0.04 in1.0 mm
03:15 AM 50.7°F10.4°C 49.9°F9.9°C 97% 0.7 mph N1.1 kmh N 2.2 mph3.5 kmh 29.99 in1015.6 mb 0.01 in0.3 mm 0.00 in0.0 mm 0.04 in1.0 mm
03:10 AM 50.7°F10.4°C 49.9°F9.9°C 97% Calm Calm 2.2 mph3.5 kmh 29.97 in1014.9 mb 0.01 in0.3 mm 0.00 in0.0 mm 0.04 in1.0 mm
03:05 AM 50.7°F10.4°C 49.9°F9.9°C 97% 0.7 mph N1.1 kmh N 2.2 mph3.5 kmh 29.97 in1014.9 mb 0.01 in0.3 mm 0.12 in3.0 mm 0.04 in1.0 mm
03:00 AM 50.7°F10.4°C 49.9°F9.9°C 97% Calm Calm 1.6 mph2.6 kmh 29.97 in1014.9 mb 0.00 in0.0 mm 0.00 in0.0 mm 0.02 in0.5 mm
02:55 AM 50.7°F10.4°C 49.9°F9.9°C 97% Calm Calm 1.6 mph2.6 kmh 29.98 in1015.2 mb 0.00 in0.0 mm 0.00 in0.0 mm 0.02 in0.5 mm
02:50 AM 50.7°F10.4°C 49.9°F9.9°C 97% Calm Calm -- 29.97 in1014.9 mb 0.01 in0.3 mm 0.00 in0.0 mm 0.02 in0.5 mm
02:45 AM 50.7°F10.4°C 49.9°F9.9°C 97% Calm Calm 3.1 mph5.0 kmh 29.97 in1014.9 mb 0.01 in0.3 mm 0.00 in0.0 mm 0.02 in0.5 mm
02:40 AM 50.9°F10.5°C 50.1°F10.1°C 97% Calm Calm 3.8 mph6.1 kmh 29.97 in1014.9 mb 0.01 in0.3 mm 0.00 in0.0 mm 0.02 in0.5 mm
02:35 AM 50.9°F10.5°C 50.1°F10.1°C 97% 2.2 mph E3.5 kmh E 3.8 mph6.1 kmh 29.96 in1014.6 mb 0.02 in0.5 mm 0.00 in0.0 mm 0.02 in0.5 mm
02:30 AM 50.9°F10.5°C 50.1°F10.1°C 97% 3.1 mph E5.0 kmh E 3.8 mph6.1 kmh 29.97 in1014.9 mb 0.02 in0.5 mm 0.00 in0.0 mm 0.02 in0.5 mm
02:25 AM 51.1°F10.6°C 50.3°F10.2°C 97% Calm Calm 3.1 mph5.0 kmh 29.97 in1014.9 mb 0.02 in0.5 mm 0.00 in0.0 mm 0.02 in0.5 mm
02:20 AM 51.1°F10.6°C 50.3°F10.2°C 97% 1.6 mph E2.6 kmh E 3.1 mph5.0 kmh 29.98 in1015.2 mb 0.02 in0.5 mm 0.00 in0.0 mm 0.02 in0.5 mm
02:15 AM 51.1°F10.6°C 50.3°F10.2°C 97% Calm Calm 2.2 mph3.5 kmh 29.99 in1015.6 mb 0.02 in0.5 mm 0.00 in0.0 mm 0.02 in0.5 mm
02:10 AM 51.1°F10.6°C 50.3°F10.2°C 97% 0.7 mph E1.1 kmh E 2.2 mph3.5 kmh 29.99 in1015.6 mb 0.02 in0.5 mm 0.00 in0.0 mm 0.02 in0.5 mm
02:05 AM 51.1°F10.6°C 50.3°F10.2°C 97% Calm Calm 2.2 mph3.5 kmh 29.99 in1015.6 mb 0.02 in0.5 mm 0.00 in0.0 mm 0.02 in0.5 mm
02:00 AM 51.1°F10.6°C 50.3°F10.2°C 97% 1.6 mph E2.6 kmh E 1.6 mph2.6 kmh 29.99 in1015.6 mb 0.02 in0.5 mm 0.00 in0.0 mm 0.02 in0.5 mm
01:55 AM 51.1°F10.6°C 50.3°F10.2°C 97% Calm Calm 1.6 mph2.6 kmh 29.99 in1015.6 mb 0.02 in0.5 mm 0.12 in3.0 mm 0.02 in0.5 mm
01:50 AM 51.1°F10.6°C 50.3°F10.2°C 97% Calm Calm -- 29.99 in1015.6 mb 0.01 in0.3 mm 0.00 in0.0 mm 0.01 in0.3 mm
01:45 AM 51.1°F10.6°C 50.3°F10.2°C 97% Calm Calm 0.7 mph1.1 kmh 30.00 in1015.9 mb 0.02 in0.5 mm 0.00 in0.0 mm 0.01 in0.3 mm
01:40 AM 51.1°F10.6°C 50.3°F10.2°C 97% Calm Calm 0.7 mph1.1 kmh 29.99 in1015.6 mb 0.02 in0.5 mm 0.12 in3.0 mm 0.01 in0.3 mm
01:35 AM 51.1°F10.6°C 50.3°F10.2°C 97% Calm Calm 1.6 mph2.6 kmh 29.99 in1015.6 mb 0.01 in0.3 mm 0.00 in0.0 mm 0.13 in3.3 mm
01:30 AM 51.1°F10.6°C 50.3°F10.2°C 97% Calm Calm 1.6 mph2.6 kmh 29.99 in1015.6 mb 0.01 in0.3 mm 0.00 in0.0 mm 0.13 in3.3 mm
01:25 AM 51.1°F10.6°C 50.3°F10.2°C 97% Calm Calm 1.6 mph2.6 kmh 29.99 in1015.6 mb 0.01 in0.3 mm 0.00 in0.0 mm 0.13 in3.3 mm
01:20 AM 51.1°F10.6°C 50.3°F10.2°C 97% 0.7 mph NE1.1 kmh NE 2.2 mph3.5 kmh 29.99 in1015.6 mb 0.02 in0.5 mm 0.00 in0.0 mm 0.13 in3.3 mm
01:15 AM 51.1°F10.6°C 50.3°F10.2°C 97% Calm Calm 3.1 mph5.0 kmh 29.98 in1015.2 mb 0.02 in0.5 mm 0.00 in0.0 mm 0.13 in3.3 mm
01:10 AM 51.3°F10.7°C 50.4°F10.2°C 97% 1.6 mph E2.6 kmh E 3.1 mph5.0 kmh 29.99 in1015.6 mb 0.02 in0.5 mm 0.00 in0.0 mm 0.13 in3.3 mm
01:05 AM 51.3°F10.7°C 50.4°F10.2°C 97% 1.6 mph ENE2.6 kmh ENE 3.1 mph5.0 kmh 29.99 in1015.6 mb 0.04 in1.0 mm 0.00 in0.0 mm 0.13 in3.3 mm
01:00 AM 51.3°F10.7°C 50.4°F10.2°C 97% 0.7 mph NE1.1 kmh NE 3.8 mph6.1 kmh 30.01 in1016.3 mb 0.05 in1.3 mm 0.00 in0.0 mm 0.13 in3.3 mm
12:55 AM 51.3°F10.7°C 50.4°F10.2°C 97% 1.6 mph NE2.6 kmh NE 3.8 mph6.1 kmh 30.00 in1015.9 mb 0.05 in1.3 mm 0.00 in0.0 mm 0.48 in12.2 mm
12:50 AM 51.1°F10.6°C 50.3°F10.2°C 97% 2.2 mph NE3.5 kmh NE 3.8 mph6.1 kmh 30.01 in1016.3 mb 0.06 in1.5 mm 0.12 in3.0 mm 0.48 in12.2 mm
12:45 AM 51.1°F10.6°C 50.3°F10.2°C 97% 2.2 mph NNE3.5 kmh NNE 3.1 mph5.0 kmh 30.01 in1016.3 mb 0.05 in1.3 mm 0.00 in0.0 mm 0.47 in11.9 mm
12:40 AM 51.3°F10.7°C 50.4°F10.2°C 97% 1.6 mph NE2.6 kmh NE 3.1 mph5.0 kmh 30.01 in1016.3 mb 0.05 in1.3 mm 0.00 in0.0 mm 0.47 in11.9 mm
12:35 AM 51.1°F10.6°C 50.3°F10.2°C 97% 1.6 mph NE2.6 kmh NE 3.1 mph5.0 kmh 30.01 in1016.3 mb 0.06 in1.5 mm 0.00 in0.0 mm 0.47 in11.9 mm
12:30 AM 51.1°F10.6°C 50.3°F10.2°C 97% 0.7 mph ENE1.1 kmh ENE 3.1 mph5.0 kmh 30.02 in1016.6 mb 0.08 in2.0 mm 0.00 in0.0 mm 0.47 in11.9 mm
12:25 AM 51.3°F10.7°C 50.2°F10.1°C 96% 2.2 mph E3.5 kmh E 3.1 mph5.0 kmh 30.02 in1016.6 mb 0.11 in2.8 mm 0.00 in0.0 mm 0.47 in11.9 mm
12:20 AM 51.3°F10.7°C 50.2°F10.1°C 96% 1.6 mph E2.6 kmh E 3.1 mph5.0 kmh 30.02 in1016.6 mb 0.12 in3.0 mm 0.00 in0.0 mm 0.46 in11.7 mm
12:15 AM 51.3°F10.7°C 50.2°F10.1°C 96% 2.2 mph ESE3.5 kmh ESE 3.1 mph5.0 kmh 30.03 in1016.9 mb 0.12 in3.0 mm 0.12 in3.0 mm 0.46 in11.7 mm
12:10 AM 51.3°F10.7°C 50.2°F10.1°C 96% Calm Calm 3.1 mph5.0 kmh 30.03 in1016.9 mb 0.11 in2.8 mm 0.00 in0.0 mm 0.45 in11.4 mm
12:05 AM 51.3°F10.7°C 50.2°F10.1°C 96% 2.2 mph SSE3.5 kmh SSE 3.1 mph5.0 kmh 30.03 in1016.9 mb 0.11 in2.8 mm 0.24 in6.1 mm 0.45 in11.4 mm
12:00 AM 51.3°F10.7°C 50.2°F10.1°C 96% Calm Calm 1.6 mph2.6 kmh 30.03 in1016.9 mb 0.09 in2.3 mm 0.00 in0.0 mm 0.44 in11.2 mm